Time;durP1;ratioP1;P1;durP2;ratioP2;P2;SDS_P1;SDS_P2;PMS_P1;PMS_P2;Temp;Humidity;BMP_temperature;BMP_pressure;BME280_temperature;BME280_humidity;BME280_pressure;Samples;Min_cycle;Max_cycle;Signal;HPM_P1;HPM_P2
2023/01/25 00:00:21;;;;;;;23.52;10.40;;;;;;;;;;6281485;22;20350;-91
2023/01/25 00:02:49;;;;;;;23.77;9.93;;;;;;;;;;6315018;22;20019;-90
2023/01/25 00:05:17;;;;;;;21.48;10.18;;;;;;;;;;6292022;22;20015;-91
2023/01/25 00:08:09;;;;;;;22.38;10.25;;;;;;;;;;6307890;22;20030;-91
2023/01/25 00:10:37;;;;;;;22.55;9.93;;;;;;;;;;6282374;22;20039;-90
2023/01/25 00:13:05;;;;;;;29.80;9.95;;;;;;;;;;6345077;22;20011;-91
2023/01/25 00:15:33;;;;;;;18.25;9.32;;;;;;;;;;6282960;22;20049;-91
2023/01/25 00:18:01;;;;;;;22.38;10.35;;;;;;;;;;6316218;22;20022;-90
2023/01/25 00:20:33;;;;;;;22.83;10.48;;;;;;;;;;6345338;22;20034;-90
2023/01/25 00:23:01;;;;;;;22.65;10.18;;;;;;;;;;6346765;22;20661;-91
2023/01/25 00:25:33;;;;;;;23.65;10.77;;;;;;;;;;6317975;22;20033;-90
2023/01/25 00:28:01;;;;;;;24.13;10.40;;;;;;;;;;6344607;22;20085;-90
2023/01/25 00:30:29;;;;;;;28.73;11.32;;;;;;;;;;6282617;22;20487;-90
2023/01/25 00:33:15;;;;;;;28.10;10.70;;;;;;;;;;6333287;22;20042;-90
2023/01/25 00:35:44;;;;;;;25.15;10.07;;;;;;;;;;6345575;22;20049;-90
2023/01/25 00:38:32;;;;;;;27.95;11.23;;;;;;;;;;6282111;22;20023;-89
2023/01/25 00:40:59;;;;;;;23.65;11.15;;;;;;;;;;6317389;22;20034;-90
2023/01/25 00:43:51;;;;;;;23.42;9.65;;;;;;;;;;6286458;22;20030;-90
2023/01/25 00:46:19;;;;;;;30.42;10.68;;;;;;;;;;6307480;22;20023;-91
2023/01/25 00:48:53;;;;;;;23.80;10.20;;;;;;;;;;6279790;22;20064;-90
2023/01/25 00:51:27;;;;;;;24.48;10.40;;;;;;;;;;6258163;22;20021;-90
2023/01/25 00:54:20;;;;;;;26.13;11.93;;;;;;;;;;6323926;22;20094;-90
2023/01/25 00:56:55;;;;;;;27.17;11.15;;;;;;;;;;6282741;22;20023;-91
2023/01/25 00:59:28;;;;;;;28.08;10.15;;;;;;;;;;6317564;22;20067;-90
2023/01/25 01:02:07;;;;;;;24.15;10.63;;;;;;;;;;6259771;22;20022;-91
2023/01/25 01:04:35;;;;;;;24.30;10.35;;;;;;;;;;6307258;22;20415;-90
2023/01/25 01:07:13;;;;;;;25.17;10.90;;;;;;;;;;6258785;22;20495;-91
2023/01/25 01:09:41;;;;;;;27.30;11.35;;;;;;;;;;6318273;22;20038;-91
2023/01/25 01:12:09;;;;;;;25.30;10.70;;;;;;;;;;6281414;22;20015;-90
2023/01/25 01:14:39;;;;;;;23.15;11.27;;;;;;;;;;6282405;22;20027;-91
2023/01/25 01:17:07;;;;;;;28.40;11.98;;;;;;;;;;6281216;22;20029;-91
2023/01/25 01:19:35;;;;;;;24.80;11.00;;;;;;;;;;6315411;22;20015;-91
2023/01/25 01:22:03;;;;;;;26.70;10.23;;;;;;;;;;6281846;22;20023;-91
2023/01/25 01:25:03;;;;;;;24.60;10.82;;;;;;;;;;6306822;22;20029;-91
2023/01/25 01:27:32;;;;;;;20.30;8.98;;;;;;;;;;6256162;22;20023;-91
2023/01/25 01:30:25;;;;;;;26.27;9.52;;;;;;;;;;6286687;22;20019;-91
2023/01/25 01:32:53;;;;;;;25.45;10.18;;;;;;;;;;6317727;22;20025;-90
2023/01/25 01:35:21;;;;;;;21.98;9.75;;;;;;;;;;6281951;22;20384;-90
2023/01/25 01:37:55;;;;;;;21.40;9.30;;;;;;;;;;6282899;22;20019;-91
2023/01/25 01:40:24;;;;;;;23.95;10.43;;;;;;;;;;6281713;22;20023;-90
2023/01/25 01:42:59;;;;;;;25.02;10.15;;;;;;;;;;6282208;22;20568;-91
2023/01/25 01:45:48;;;;;;;26.73;10.80;;;;;;;;;;6293105;22;20039;-91
2023/01/25 01:48:19;;;;;;;21.70;9.38;;;;;;;;;;6281602;22;20022;-91
2023/01/25 01:50:54;;;;;;;25.00;9.27;;;;;;;;;;6257662;22;20026;-91
2023/01/25 01:53:28;;;;;;;20.05;8.98;;;;;;;;;;6293185;22;20019;-91
2023/01/25 01:56:00;;;;;;;27.10;10.13;;;;;;;;;;6255868;22;20018;-90
2023/01/25 01:58:31;;;;;;;23.35;10.65;;;;;;;;;;6317698;22;20026;-90
2023/01/25 02:00:59;;;;;;;19.88;9.35;;;;;;;;;;6280786;22;20033;-91
2023/01/25 02:03:29;;;;;;;20.83;8.65;;;;;;;;;;6281635;22;20019;-91
2023/01/25 02:06:46;;;;;;;21.77;9.18;;;;;;;;;;6282739;22;20030;-91
2023/01/25 02:12:22;;;;;;;24.83;9.00;;;;;;;;;;6152420;23;20021;-91
2023/01/25 02:15:43;;;;;;;20.88;8.15;;;;;;;;;;6153586;23;20906;-91
2023/01/25 02:18:12;;;;;;;20.15;8.98;;;;;;;;;;6128536;23;20028;-92
2023/01/25 02:20:50;;;;;;;18.30;8.02;;;;;;;;;;6163562;23;20024;-90
2023/01/25 02:23:33;;;;;;;21.90;9.00;;;;;;;;;;6163755;23;20071;-91
2023/01/25 02:26:29;;;;;;;17.85;7.78;;;;;;;;;;6128239;23;20028;-91
2023/01/25 02:29:23;;;;;;;17.15;7.38;;;;;;;;;;6109379;23;20021;-91
2023/01/25 02:32:03;;;;;;;15.93;7.80;;;;;;;;;;6104944;23;20023;-91
2023/01/25 02:34:31;;;;;;;18.55;8.32;;;;;;;;;;6104975;23;20025;-91
2023/01/25 02:36:59;;;;;;;20.48;8.07;;;;;;;;;;6139394;23;20096;-91
2023/01/25 02:39:29;;;;;;;14.32;7.07;;;;;;;;;;6153009;23;20017;-91
2023/01/25 02:41:57;;;;;;;18.77;7.05;;;;;;;;;;6162269;23;20555;-91
2023/01/25 02:44:30;;;;;;;18.70;8.18;;;;;;;;;;6189003;22;20050;-91
2023/01/25 02:47:03;;;;;;;18.25;7.50;;;;;;;;;;6281267;22;20027;-91
2023/01/25 02:49:39;;;;;;;15.80;6.82;;;;;;;;;;6280892;22;20068;-91
2023/01/25 02:52:09;;;;;;;18.85;7.43;;;;;;;;;;6257129;22;20023;-91
2023/01/25 02:54:37;;;;;;;19.38;7.22;;;;;;;;;;6280743;22;20022;-91
2023/01/25 02:57:13;;;;;;;20.58;7.00;;;;;;;;;;6293767;22;20403;-91
2023/01/25 03:00:09;;;;;;;20.88;8.10;;;;;;;;;;6316682;22;20743;-91
2023/01/25 03:02:37;;;;;;;16.48;7.53;;;;;;;;;;6282752;22;20011;-92
2023/01/25 03:05:11;;;;;;;19.30;7.82;;;;;;;;;;6257441;22;20375;-91
2023/01/25 03:08:03;;;;;;;19.13;8.02;;;;;;;;;;6286598;22;20022;-91
2023/01/25 03:11:00;;;;;;;19.45;6.93;;;;;;;;;;6321520;22;20042;-91
2023/01/25 03:13:40;;;;;;;18.02;6.63;;;;;;;;;;6256167;22;20026;-90
2023/01/25 03:16:10;;;;;;;22.20;7.65;;;;;;;;;;6280670;22;20092;-91
2023/01/25 03:18:42;;;;;;;19.63;6.70;;;;;;;;;;6281131;22;20101;-92
2023/01/25 03:21:35;;;;;;;21.38;7.72;;;;;;;;;;6286404;22;20018;-91
2023/01/25 03:24:29;;;;;;;22.58;7.30;;;;;;;;;;6322516;22;20549;-91
2023/01/25 03:27:09;;;;;;;19.38;7.28;;;;;;;;;;6257165;22;20023;-90
2023/01/25 03:30:08;;;;;;;18.92;6.57;;;;;;;;;;6285363;22;20102;-91
2023/01/25 03:32:37;;;;;;;19.88;7.10;;;;;;;;;;6291306;22;20355;-90
2023/01/25 03:35:15;;;;;;;21.15;7.38;;;;;;;;;;6257478;22;20364;-90
2023/01/25 03:38:07;;;;;;;20.85;7.97;;;;;;;;;;6285600;22;20105;-90
2023/01/25 03:40:35;;;;;;;18.48;6.78;;;;;;;;;;6255434;22;20495;-91
2023/01/25 03:43:28;;;;;;;21.67;7.95;;;;;;;;;;6305771;22;20010;-91
2023/01/25 03:46:01;;;;;;;19.00;7.68;;;;;;;;;;6280716;22;20023;-91
2023/01/25 03:48:31;;;;;;;20.65;7.78;;;;;;;;;;6256356;22;20019;-91
2023/01/25 03:51:01;;;;;;;21.25;8.18;;;;;;;;;;6255291;22;20084;-91
2023/01/25 03:53:31;;;;;;;21.35;8.10;;;;;;;;;;6291594;22;20007;-90
2023/01/25 03:56:10;;;;;;;23.95;7.85;;;;;;;;;;6282839;22;20469;-90
2023/01/25 03:58:45;;;;;;;17.08;6.88;;;;;;;;;;6258369;22;20075;-90
2023/01/25 04:01:14;;;;;;;22.38;8.63;;;;;;;;;;6282254;22;20026;-90
2023/01/25 04:03:43;;;;;;;21.08;7.35;;;;;;;;;;6257131;22;20109;-90
2023/01/25 04:06:17;;;;;;;22.08;8.20;;;;;;;;;;6259178;22;20068;-91
2023/01/25 04:09:09;;;;;;;22.98;8.57;;;;;;;;;;6282499;22;20393;-90
2023/01/25 04:11:41;;;;;;;22.20;8.48;;;;;;;;;;6258472;22;20014;-91
2023/01/25 04:14:39;;;;;;;21.90;7.63;;;;;;;;;;6263955;22;20096;-91
2023/01/25 04:17:31;;;;;;;18.15;7.55;;;;;;;;;;6282265;22;20014;-90
2023/01/25 04:20:06;;;;;;;28.75;8.98;;;;;;;;;;6283460;22;20102;-90
2023/01/25 04:22:41;;;;;;;23.30;9.40;;;;;;;;;;6258718;22;20021;-90
2023/01/25 04:25:15;;;;;;;23.20;9.07;;;;;;;;;;6257998;22;20022;-90
2023/01/25 04:28:07;;;;;;;21.13;7.57;;;;;;;;;;6287207;22;20023;-91
2023/01/25 04:30:35;;;;;;;21.98;8.30;;;;;;;;;;6292769;22;20068;-91
2023/01/25 04:33:16;;;;;;;22.95;8.32;;;;;;;;;;6282216;22;20018;-90
2023/01/25 04:35:46;;;;;;;22.13;8.82;;;;;;;;;;6257141;22;20050;-90
2023/01/25 04:38:41;;;;;;;22.17;8.15;;;;;;;;;;6288494;22;20328;-90
2023/01/25 04:41:09;;;;;;;25.45;8.93;;;;;;;;;;6281125;22;20021;-91
2023/01/25 04:43:37;;;;;;;19.25;7.63;;;;;;;;;;6293293;22;20011;-90
2023/01/25 04:46:09;;;;;;;22.08;8.63;;;;;;;;;;6294299;22;20015;-90
2023/01/25 04:48:39;;;;;;;20.80;8.40;;;;;;;;;;6294214;22;20035;-91
2023/01/25 04:51:08;;;;;;;20.15;8.65;;;;;;;;;;6281738;22;20018;-91
2023/01/25 04:53:35;;;;;;;19.85;8.43;;;;;;;;;;6281483;22;20446;-91
2023/01/25 04:56:27;;;;;;;18.67;7.55;;;;;;;;;;6261821;22;20045;-91
2023/01/25 04:59:20;;;;;;;20.42;8.60;;;;;;;;;;6261453;22;20017;-90
2023/01/25 05:02:13;;;;;;;20.35;7.85;;;;;;;;;;6286076;22;20023;-90
2023/01/25 05:05:13;;;;;;;24.67;8.63;;;;;;;;;;6258011;22;20039;-90
2023/01/25 05:08:05;;;;;;;20.80;9.15;;;;;;;;;;6324317;22;20416;-90
2023/01/25 05:10:33;;;;;;;24.00;8.82;;;;;;;;;;6256510;22;20026;-91
2023/01/25 05:13:27;;;;;;;22.67;9.00;;;;;;;;;;6262197;22;20025;-91
2023/01/25 05:16:15;;;;;;;16.77;7.68;;;;;;;;;;6259962;22;20350;-90
2023/01/25 05:18:49;;;;;;;20.65;8.57;;;;;;;;;;6293960;22;20043;-90
2023/01/25 05:24:48;;;;;;;19.40;8.70;;;;;;;;;;6307518;22;20439;-91
2023/01/25 05:27:21;;;;;;;19.85;8.60;;;;;;;;;;6293893;22;20014;-91
2023/01/25 05:29:56;;;;;;;23.60;9.13;;;;;;;;;;6283402;22;20030;-90
2023/01/25 05:32:41;;;;;;;19.92;8.68;;;;;;;;;;6259656;22;20106;-91
2023/01/25 05:35:09;;;;;;;20.65;7.80;;;;;;;;;;6292682;22;20082;-90
2023/01/25 05:38:03;;;;;;;17.92;8.23;;;;;;;;;;6323585;22;20030;-91
2023/01/25 05:40:33;;;;;;;17.20;7.85;;;;;;;;;;6257562;22;20132;-91
2023/01/25 05:43:03;;;;;;;19.65;8.52;;;;;;;;;;6256893;22;20451;-91
2023/01/25 05:45:33;;;;;;;21.55;8.57;;;;;;;;;;6257066;22;20026;-91
2023/01/25 05:48:05;;;;;;;16.45;7.68;;;;;;;;;;6292770;22;20080;-90
2023/01/25 05:50:35;;;;;;;19.80;8.63;;;;;;;;;;6292867;22;20439;-90
2023/01/25 05:53:29;;;;;;;20.20;8.90;;;;;;;;;;6261582;22;20011;-91
2023/01/25 05:56:07;;;;;;;20.98;9.10;;;;;;;;;;6292226;22;20462;-91
2023/01/25 05:58:39;;;;;;;19.10;8.93;;;;;;;;;;6256363;22;20022;-91
2023/01/25 06:01:32;;;;;;;14.10;7.63;;;;;;;;;;6317021;22;20010;-90
2023/01/25 06:04:11;;;;;;;18.77;7.53;;;;;;;;;;6255962;22;20347;-90
2023/01/25 06:06:41;;;;;;;14.60;8.45;;;;;;;;;;6316335;22;20061;-89
2023/01/25 06:09:11;;;;;;;17.55;8.30;;;;;;;;;;6255160;22;20022;-89
2023/01/25 06:11:45;;;;;;;16.95;8.48;;;;;;;;;;6315228;22;20034;-88
2023/01/25 06:14:17;;;;;;;17.83;8.38;;;;;;;;;;6255789;22;20041;-89
2023/01/25 06:17:15;;;;;;;15.90;8.25;;;;;;;;;;6285249;22;20022;-88
2023/01/25 06:20:01;;;;;;;20.70;8.35;;;;;;;;;;6294063;22;20011;-87
2023/01/25 06:23:11;;;;;;;17.88;7.78;;;;;;;;;;6288508;22;20037;-88
2023/01/25 06:25:39;;;;;;;19.38;8.75;;;;;;;;;;6315621;22;20015;-89
2023/01/25 06:28:08;;;;;;;17.17;8.55;;;;;;;;;;6315247;22;20039;-89
2023/01/25 06:31:23;;;;;;;17.05;7.78;;;;;;;;;;6342888;22;20013;-88
2023/01/25 06:33:51;;;;;;;17.35;8.75;;;;;;;;;;6316462;22;20417;-92
2023/01/25 06:36:21;;;;;;;20.90;9.35;;;;;;;;;;6291446;22;20015;-89
2023/01/25 06:38:55;;;;;;;21.08;9.77;;;;;;;;;;6280072;22;20021;-90
2023/01/25 06:41:24;;;;;;;20.15;9.18;;;;;;;;;;6279791;22;20433;-90
2023/01/25 06:44:17;;;;;;;22.90;9.85;;;;;;;;;;6315944;22;20007;-90
2023/01/25 06:47:10;;;;;;;19.15;8.75;;;;;;;;;;6258929;22;20017;-90
2023/01/25 06:49:37;;;;;;;18.98;9.32;;;;;;;;;;6289671;22;20087;-90
2023/01/25 06:52:05;;;;;;;20.55;9.27;;;;;;;;;;6279065;22;20018;-90
2023/01/25 06:54:33;;;;;;;18.85;9.00;;;;;;;;;;6279746;22;20048;-90
2023/01/25 06:57:02;;;;;;;19.08;9.18;;;;;;;;;;6279791;22;20859;-90
2023/01/25 06:59:35;;;;;;;20.70;9.95;;;;;;;;;;6280907;22;20466;-90
2023/01/25 07:02:03;;;;;;;18.75;9.18;;;;;;;;;;6278910;22;20023;-90
2023/01/25 07:04:33;;;;;;;22.23;9.80;;;;;;;;;;6290352;22;20865;-90
2023/01/25 07:07:01;;;;;;;20.48;9.15;;;;;;;;;;6279491;22;20109;-90
2023/01/25 07:09:34;;;;;;;22.20;9.52;;;;;;;;;;6279599;22;20051;-90
2023/01/25 07:12:03;;;;;;;20.95;8.77;;;;;;;;;;6315486;22;20493;-89
2023/01/25 07:14:55;;;;;;;22.15;9.32;;;;;;;;;;6294970;22;20007;-90
2023/01/25 07:17:47;;;;;;;23.70;9.07;;;;;;;;;;6305018;22;20025;-90
2023/01/25 07:20:15;;;;;;;22.40;10.48;;;;;;;;;;6343802;22;20336;-90
2023/01/25 07:22:43;;;;;;;22.95;10.02;;;;;;;;;;6280331;22;20128;-89
2023/01/25 07:25:49;;;;;;;20.42;9.00;;;;;;;;;;6305533;22;20007;-90
2023/01/25 07:28:17;;;;;;;22.50;9.75;;;;;;;;;;6279723;22;20497;-90
2023/01/25 07:30:50;;;;;;;21.98;9.30;;;;;;;;;;6255032;22;20066;-90
2023/01/25 07:33:17;;;;;;;19.52;9.10;;;;;;;;;;6249443;22;20019;-90
2023/01/25 07:35:45;;;;;;;22.95;10.07;;;;;;;;;;6315562;22;20447;-90
2023/01/25 07:38:13;;;;;;;20.38;9.30;;;;;;;;;;6315556;22;20082;-90
2023/01/25 07:40:41;;;;;;;21.65;9.05;;;;;;;;;;6277818;22;20081;-90
2023/01/25 07:43:09;;;;;;;22.08;9.30;;;;;;;;;;6312732;22;20011;-91
2023/01/25 07:45:37;;;;;;;22.08;9.93;;;;;;;;;;6315064;22;20097;-90
2023/01/25 07:48:09;;;;;;;23.83;10.20;;;;;;;;;;6313460;22;20014;-90
2023/01/25 07:50:45;;;;;;;20.30;9.63;;;;;;;;;;6279727;22;20043;-90
2023/01/25 07:53:13;;;;;;;22.63;10.20;;;;;;;;;;6253511;22;20019;-91
2023/01/25 07:55:41;;;;;;;20.95;9.95;;;;;;;;;;6341438;22;20076;-91
2023/01/25 07:58:10;;;;;;;22.92;9.68;;;;;;;;;;6303862;22;20046;-90
2023/01/25 08:00:37;;;;;;;20.05;9.60;;;;;;;;;;6314624;22;20686;-91
2023/01/25 08:03:09;;;;;;;23.30;9.05;;;;;;;;;;6277701;22;20021;-90
2023/01/25 08:05:43;;;;;;;22.35;9.88;;;;;;;;;;6315961;22;20057;-91
2023/01/25 08:08:11;;;;;;;20.20;8.80;;;;;;;;;;6278602;22;20027;-91
2023/01/25 08:10:39;;;;;;;17.70;8.60;;;;;;;;;;6290380;22;20022;-91
2023/01/25 08:13:07;;;;;;;22.05;9.23;;;;;;;;;;6253041;22;20519;-91
2023/01/25 08:18:29;;;;;;;17.70;7.78;;;;;;;;;;6313786;22;20019;-90
2023/01/25 08:20:58;;;;;;;17.73;8.57;;;;;;;;;;6315602;22;20065;-91
2023/01/25 08:23:26;;;;;;;20.60;9.35;;;;;;;;;;6279432;22;20240;-90
2023/01/25 08:26:04;;;;;;;20.15;9.32;;;;;;;;;;6316455;22;20553;-91
2023/01/25 08:28:57;;;;;;;17.73;8.48;;;;;;;;;;6343531;22;20100;-91
2023/01/25 08:31:31;;;;;;;19.20;8.38;;;;;;;;;;6314508;22;20019;-91
2023/01/25 08:34:00;;;;;;;22.17;9.05;;;;;;;;;;6279794;22;20031;-91
2023/01/25 08:36:29;;;;;;;18.88;9.00;;;;;;;;;;6315548;22;20108;-91
2023/01/25 08:39:00;;;;;;;20.42;10.25;;;;;;;;;;6289417;22;20068;-90
2023/01/25 08:41:30;;;;;;;20.90;9.32;;;;;;;;;;6279517;22;20022;-91
2023/01/25 08:43:59;;;;;;;20.73;9.65;;;;;;;;;;6306060;22;20045;-91
2023/01/25 08:46:30;;;;;;;21.63;10.40;;;;;;;;;;6253552;22;20061;-90
2023/01/25 08:49:03;;;;;;;23.02;10.25;;;;;;;;;;6317720;22;20035;-90
2023/01/25 08:51:32;;;;;;;21.73;9.35;;;;;;;;;;6280914;22;20054;-91
2023/01/25 08:57:23;;;;;;;18.92;9.27;;;;;;;;;;6280668;22;20450;-92
2023/01/25 08:59:51;;;;;;;24.73;9.80;;;;;;;;;;6315441;22;20019;-91
2023/01/25 09:02:23;;;;;;;22.20;11.18;;;;;;;;;;6316578;22;20029;-92
2023/01/25 09:04:57;;;;;;;19.83;9.35;;;;;;;;;;6308179;22;20034;-92
2023/01/25 09:07:25;;;;;;;22.45;10.02;;;;;;;;;;6256140;22;20097;-92
2023/01/25 09:09:53;;;;;;;26.20;10.23;;;;;;;;;;6308026;22;20346;-92
2023/01/25 09:12:27;;;;;;;23.98;10.50;;;;;;;;;;6282861;22;20438;-93
2023/01/25 09:14:55;;;;;;;25.27;11.55;;;;;;;;;;6280842;22;20023;-92
2023/01/25 09:17:27;;;;;;;23.38;10.32;;;;;;;;;;6305660;22;20034;-93
2023/01/25 09:19:55;;;;;;;23.17;11.30;;;;;;;;;;6317885;22;20112;-93
2023/01/25 09:22:33;;;;;;;22.30;10.27;;;;;;;;;;6317597;22;20014;-86
2023/01/25 09:25:26;;;;;;;26.00;10.75;;;;;;;;;;6282918;22;20339;-91
2023/01/25 09:28:01;;;;;;;21.88;11.07;;;;;;;;;;6307343;22;20023;-92
2023/01/25 09:30:29;;;;;;;29.95;12.25;;;;;;;;;;6317907;22;20354;-92
2023/01/25 09:33:27;;;;;;;29.67;13.55;;;;;;;;;;6320684;22;20014;-93
2023/01/25 09:36:24;;;;;;;26.00;12.15;;;;;;;;;;6323054;22;20033;-93
2023/01/25 09:38:54;;;;;;;29.08;12.25;;;;;;;;;;6281541;22;20022;-92
2023/01/25 09:41:44;;;;;;;27.05;12.52;;;;;;;;;;6317696;22;20030;-93
2023/01/25 09:44:40;;;;;;;25.25;11.18;;;;;;;;;;6257530;22;20022;-92
2023/01/25 09:47:51;;;;;;;21.88;10.93;;;;;;;;;;6285567;22;20022;-92
2023/01/25 09:50:37;;;;;;;25.83;11.20;;;;;;;;;;6307461;22;20106;-93
2023/01/25 09:53:36;;;;;;;24.67;11.20;;;;;;;;;;6316937;22;20010;-92
2023/01/25 09:56:12;;;;;;;25.77;10.63;;;;;;;;;;6256108;22;20085;-92
2023/01/25 09:58:47;;;;;;;24.20;11.27;;;;;;;;;;6280221;22;20018;-92
2023/01/25 10:02:05;;;;;;;25.90;11.68;;;;;;;;;;6280162;22;20072;-92
2023/01/25 10:04:43;;;;;;;26.80;11.60;;;;;;;;;;6333284;22;20018;-92
2023/01/25 10:07:55;;;;;;;23.67;10.73;;;;;;;;;;6261570;22;20010;-92
2023/01/25 10:10:49;;;;;;;30.40;11.52;;;;;;;;;;6283008;22;20025;-92
2023/01/25 10:13:22;;;;;;;26.65;12.90;;;;;;;;;;6280976;22;20015;-92
2023/01/25 10:16:21;;;;;;;25.30;11.50;;;;;;;;;;6312206;22;20010;-92
2023/01/25 10:19:04;;;;;;;30.60;11.35;;;;;;;;;;6307901;22;20026;-92
2023/01/25 10:21:38;;;;;;;27.15;11.57;;;;;;;;;;6305471;22;20019;-92
2023/01/25 10:24:47;;;;;;;33.13;12.73;;;;;;;;;;6282261;22;20090;-92
2023/01/25 10:27:53;;;;;;;26.50;11.55;;;;;;;;;;6254066;22;20354;-92
2023/01/25 10:30:26;;;;;;;30.35;11.98;;;;;;;;;;6255490;22;20027;-93
2023/01/25 10:33:06;;;;;;;30.08;12.38;;;;;;;;;;6304648;22;20018;-93
2023/01/25 10:36:01;;;;;;;27.48;11.27;;;;;;;;;;6281302;22;20049;-93
2023/01/25 10:38:35;;;;;;;35.13;12.27;;;;;;;;;;6307112;22;20015;-92
2023/01/25 10:41:09;;;;;;;33.28;12.27;;;;;;;;;;6307247;22;20019;-93
2023/01/25 10:43:37;;;;;;;27.48;11.80;;;;;;;;;;6292360;22;20015;-93
2023/01/25 10:46:35;;;;;;;24.15;11.13;;;;;;;;;;6280753;22;20028;-92
2023/01/25 10:49:47;;;;;;;29.42;12.13;;;;;;;;;;6218652;23;20444;-92
2023/01/25 10:52:22;;;;;;;29.08;12.50;;;;;;;;;;6224021;23;20098;-92
2023/01/25 10:55:17;;;;;;;35.90;14.75;;;;;;;;;;6213331;23;20514;-93
2023/01/25 10:57:52;;;;;;;31.98;12.63;;;;;;;;;;6222856;23;20028;-92
2023/01/25 11:00:40;;;;;;;34.67;13.43;;;;;;;;;;6187551;23;20166;-92
2023/01/25 11:03:40;;;;;;;31.70;13.73;;;;;;;;;;6185810;23;20078;-92
2023/01/25 11:06:10;;;;;;;28.80;12.55;;;;;;;;;;6212324;23;20457;-92
2023/01/25 11:08:43;;;;;;;33.67;13.65;;;;;;;;;;6222653;23;20052;-93
2023/01/25 11:11:14;;;;;;;31.25;13.43;;;;;;;;;;6187932;23;20047;-92
2023/01/25 11:13:41;;;;;;;33.60;14.30;;;;;;;;;;6188655;23;20024;-93
2023/01/25 11:16:22;;;;;;;35.13;14.52;;;;;;;;;;6189135;23;20020;-93
2023/01/25 11:18:57;;;;;;;32.97;13.63;;;;;;;;;;6188083;23;20038;-93
2023/01/25 11:21:30;;;;;;;32.63;13.48;;;;;;;;;;6237246;23;20024;-93
2023/01/25 11:24:08;;;;;;;33.83;14.27;;;;;;;;;;6186503;23;20016;-91
2023/01/25 11:26:37;;;;;;;36.55;14.25;;;;;;;;;;6310483;22;20049;-92
2023/01/25 11:29:20;;;;;;;36.03;14.25;;;;;;;;;;6344171;22;20022;-93
2023/01/25 11:31:53;;;;;;;35.55;14.52;;;;;;;;;;6278491;22;20097;-92
2023/01/25 11:34:49;;;;;;;39.55;14.70;;;;;;;;;;6288244;22;20018;-93
2023/01/25 11:37:57;;;;;;;34.83;14.13;;;;;;;;;;6282360;22;20044;-92
2023/01/25 11:40:37;;;;;;;35.92;13.98;;;;;;;;;;6317914;22;20046;-93
2023/01/25 11:43:34;;;;;;;35.20;15.10;;;;;;;;;;6255924;22;20026;-93
2023/01/25 11:46:04;;;;;;;35.97;15.60;;;;;;;;;;6315815;22;20097;-92
2023/01/25 11:48:45;;;;;;;33.40;14.93;;;;;;;;;;6279312;22;20019;-92
2023/01/25 11:51:42;;;;;;;35.45;14.50;;;;;;;;;;6279716;22;20153;-92
2023/01/25 11:54:20;;;;;;;35.63;14.00;;;;;;;;;;6306001;22;20050;-92
2023/01/25 11:57:13;;;;;;;36.92;14.40;;;;;;;;;;6279677;22;20018;-93
2023/01/25 11:59:56;;;;;;;36.35;14.27;;;;;;;;;;6292466;22;20011;-92
2023/01/25 12:03:02;;;;;;;38.80;14.65;;;;;;;;;;6279074;22;20064;-92
2023/01/25 12:05:59;;;;;;;35.45;13.57;;;;;;;;;;6261025;22;20022;-93
2023/01/25 12:09:11;;;;;;;39.80;14.32;;;;;;;;;;6317443;22;20011;-92
2023/01/25 12:11:48;;;;;;;36.78;13.85;;;;;;;;;;6305699;22;20064;-93
2023/01/25 12:14:25;;;;;;;33.00;13.85;;;;;;;;;;6305667;22;20019;-92
2023/01/25 12:17:37;;;;;;;35.95;14.52;;;;;;;;;;6287757;22;20153;-92
2023/01/25 12:20:34;;;;;;;36.22;13.93;;;;;;;;;;6258653;22;20015;-92
2023/01/25 12:23:52;;;;;;;28.95;13.15;;;;;;;;;;6308413;22;20023;-92
2023/01/25 12:26:50;;;;;;;33.25;13.60;;;;;;;;;;6259400;22;20399;-93
2023/01/25 12:29:32;;;;;;;35.83;15.10;;;;;;;;;;6283078;22;20050;-92
2023/01/25 12:32:25;;;;;;;29.23;12.40;;;;;;;;;;6281327;22;20097;-92
2023/01/25 12:35:03;;;;;;;36.80;14.43;;;;;;;;;;6283765;22;20068;-94
2023/01/25 12:37:41;;;;;;;33.47;13.98;;;;;;;;;;6298077;22;20455;-93
2023/01/25 12:40:53;;;;;;;31.50;13.30;;;;;;;;;;6319474;22;20019;-92
2023/01/25 12:44:08;;;;;;;32.15;13.23;;;;;;;;;;6258385;22;20022;-91
2023/01/25 12:47:45;;;;;;;38.03;16.38;;;;;;;;;;6317727;22;20022;-92
2023/01/25 12:51:12;;;;;;;36.97;14.05;;;;;;;;;;6283421;22;20439;-92
2023/01/25 12:54:48;;;;;;;31.08;12.90;;;;;;;;;;6183258;23;20445;-93
2023/01/25 12:59:07;;;;;;;31.15;12.48;;;;;;;;;;6173468;23;20024;-92
2023/01/25 13:02:47;;;;;;;;;;;;;;;;;;;;;
2023/01/25 13:06:28;;;;;;;30.65;13.32;;;;;;;;;;6178713;23;20021;-92
2023/01/25 13:09:16;;;;;;;31.20;12.13;;;;;;;;;;6065514;23;20077;-92
2023/01/25 13:12:14;;;;;;;35.95;13.88;;;;;;;;;;6056470;23;20022;-92
2023/01/25 13:14:55;;;;;;;31.15;12.93;;;;;;;;;;6059090;23;20015;-93
2023/01/25 13:17:49;;;;;;;29.25;12.23;;;;;;;;;;6066550;23;20130;-92
2023/01/25 13:20:41;;;;;;;34.42;13.68;;;;;;;;;;6061579;23;20023;-93
2023/01/25 13:24:01;;;;;;;32.67;14.40;;;;;;;;;;6060347;23;20019;-91
2023/01/25 13:26:51;;;;;;;35.85;14.35;;;;;;;;;;6002516;23;20061;-92
2023/01/25 13:29:54;;;;;;;26.95;12.43;;;;;;;;;;5979888;23;20103;-92
2023/01/25 13:32:31;;;;;;;33.25;13.85;;;;;;;;;;6041721;23;20336;-92
2023/01/25 13:35:04;;;;;;;25.42;10.45;;;;;;;;;;6124397;23;20028;-93
2023/01/25 13:38:32;;;;;;;29.67;12.75;;;;;;;;;;6127238;23;20025;-92
2023/01/25 13:41:22;;;;;;;25.88;10.32;;;;;;;;;;6182868;23;20020;-92
2023/01/25 13:44:27;;;;;;;25.92;10.65;;;;;;;;;;6193756;23;20111;-92
2023/01/25 13:47:15;;;;;;;27.75;11.98;;;;;;;;;;6134852;23;20028;-92
2023/01/25 13:50:17;;;;;;;31.70;13.15;;;;;;;;;;6165693;23;20025;-92
2023/01/25 13:53:15;;;;;;;28.25;11.48;;;;;;;;;;6195133;23;20499;-93
2023/01/25 13:56:00;;;;;;;28.60;12.32;;;;;;;;;;6177157;22;20022;-93
2023/01/25 13:58:54;;;;;;;26.42;11.10;;;;;;;;;;6298037;22;20021;-91
2023/01/25 14:01:55;;;;;;;27.65;12.13;;;;;;;;;;6297007;22;20023;-92
2023/01/25 14:04:34;;;;;;;29.50;12.02;;;;;;;;;;6256640;22;20100;-92
2023/01/25 14:07:15;;;;;;;27.58;11.20;;;;;;;;;;6282227;22;20066;-92
2023/01/25 14:09:50;;;;;;;28.30;12.52;;;;;;;;;;6318720;22;20027;-92
2023/01/25 14:12:39;;;;;;;27.85;11.38;;;;;;;;;;6256635;22;20026;-92
2023/01/25 14:15:33;;;;;;;30.42;11.88;;;;;;;;;;6323456;22;20015;-92
2023/01/25 14:18:11;;;;;;;29.33;11.25;;;;;;;;;;6317082;22;20045;-92
2023/01/25 14:20:40;;;;;;;26.77;11.43;;;;;;;;;;6280107;22;20027;-92
2023/01/25 14:23:21;;;;;;;29.20;12.50;;;;;;;;;;6318420;22;20036;-92
2023/01/25 14:25:50;;;;;;;27.00;11.65;;;;;;;;;;6282696;22;20405;-92
2023/01/25 14:28:20;;;;;;;28.15;12.18;;;;;;;;;;6292434;22;20034;-92
2023/01/25 14:31:01;;;;;;;32.05;13.35;;;;;;;;;;6281721;22;20031;-93
2023/01/25 14:33:36;;;;;;;32.53;13.07;;;;;;;;;;6304753;22;20044;-93
2023/01/25 14:36:08;;;;;;;26.00;11.23;;;;;;;;;;6319808;22;20018;-93
2023/01/25 14:38:52;;;;;;;31.42;12.00;;;;;;;;;;6259588;22;20019;-91
2023/01/25 14:41:26;;;;;;;28.55;11.48;;;;;;;;;;6306859;22;20037;-94
2023/01/25 14:44:27;;;;;;;33.15;12.70;;;;;;;;;;6325728;22;20026;-92
2023/01/25 14:47:31;;;;;;;25.17;11.85;;;;;;;;;;6258757;22;20022;-92
2023/01/25 14:50:34;;;;;;;32.78;12.45;;;;;;;;;;6251468;23;20027;-91
2023/01/25 14:53:22;;;;;;;30.17;12.65;;;;;;;;;;6216312;23;20368;-91
2023/01/25 14:56:43;;;;;;;26.67;11.23;;;;;;;;;;6249559;23;20024;-92
2023/01/25 15:00:18;;;;;;;35.03;13.40;;;;;;;;;;6224762;23;20047;-93
2023/01/25 15:03:21;;;;;;;27.75;13.05;;;;;;;;;;6211489;23;20024;-89
2023/01/25 15:06:15;;;;;;;33.50;12.40;;;;;;;;;;6249237;23;20095;-94
2023/01/25 15:08:48;;;;;;;37.53;14.55;;;;;;;;;;6193663;23;20030;-93
2023/01/25 15:11:44;;;;;;;;;;;;;;;;;;;;;
2023/01/25 15:14:21;;;;;;;39.45;15.23;;;;;;;;;;6223667;23;20020;-93
2023/01/25 15:16:54;;;;;;;41.58;16.13;;;;;;;;;;6224959;23;20043;-93
2023/01/25 15:19:38;;;;;;;36.30;13.38;;;;;;;;;;6170480;23;20039;-93
2023/01/25 15:22:09;;;;;;;31.25;14.25;;;;;;;;;;6227348;23;20020;-94
2023/01/25 15:24:38;;;;;;;41.70;14.73;;;;;;;;;;6235563;22;20077;-94
2023/01/25 15:27:16;;;;;;;52.13;18.75;;;;;;;;;;6299897;22;20074;-93
2023/01/25 15:29:59;;;;;;;50.45;16.85;;;;;;;;;;6290315;22;20019;-94
2023/01/25 15:32:33;;;;;;;36.95;14.90;;;;;;;;;;6265745;22;20037;-93
2023/01/25 15:35:05;;;;;;;38.47;13.70;;;;;;;;;;6285837;22;20414;-95
2023/01/25 15:38:13;;;;;;;;;;;;;;;;;;;;;
2023/01/25 15:41:25;;;;;;;33.83;12.85;;;;;;;;;;6215890;23;20546;-93
2023/01/25 15:43:53;;;;;;;37.50;14.00;;;;;;;;;;6217138;23;20042;-93
2023/01/25 15:47:15;;;;;;;38.22;14.38;;;;;;;;;;6218567;23;20020;-95
2023/01/25 15:49:52;;;;;;;35.10;13.35;;;;;;;;;;6211028;23;20023;-92
2023/01/25 15:52:33;;;;;;;40.17;14.45;;;;;;;;;;6230214;23;20028;-93
2023/01/25 15:55:13;;;;;;;41.80;15.57;;;;;;;;;;6199576;23;20012;-90
2023/01/25 15:57:45;;;;;;;37.40;13.68;;;;;;;;;;6231293;23;20044;-93
2023/01/25 16:00:21;;;;;;;41.40;15.02;;;;;;;;;;6205227;23;20034;-95
2023/01/25 16:02:49;;;;;;;41.03;14.27;;;;;;;;;;6194431;23;20088;-94